Time;durP1;ratioP1;P1;durP2;ratioP2;P2;SDS_P1;SDS_P2;PMS_P1;PMS_P2;Temp;Humidity;BMP_temperature;BMP_pressure;BME280_temperature;BME280_humidity;BME280_pressure;Samples;Min_cycle;Max_cycle;Signal;HPM_P1;HPM_P2
2022/09/02 00:01:24;;;;;;;0.13;0.13;;;14.50;99.90;;;;;;4921664;29;20343;-82
2022/09/02 00:04:30;;;;;;;0.10;0.10;;;14.40;99.90;;;;;;4903704;29;20017;-80
2022/09/02 00:07:03;;;;;;;0.10;0.10;;;14.40;99.90;;;;;;4924328;29;20048;-80
2022/09/02 00:09:51;;;;;;;0.43;0.43;;;14.40;99.90;;;;;;4910967;29;20044;-81
2022/09/02 00:12:27;;;;;;;0.10;0.10;;;14.40;99.90;;;;;;4921920;29;20423;-78
2022/09/02 00:15:06;;;;;;;0.10;0.10;;;14.50;99.90;;;;;;4903499;29;20031;-79
2022/09/02 00:17:40;;;;;;;0.10;0.10;;;14.50;99.90;;;;;;4920695;29;20208;-80
2022/09/02 00:20:21;;;;;;;0.10;0.10;;;13.40;99.90;;;;;;4919950;29;20032;-82
2022/09/02 00:23:04;;;;;;;0.10;0.10;;;14.50;99.90;;;;;;4928538;29;20036;-84
2022/09/02 00:25:57;;;;;;;0.10;0.10;;;14.50;99.90;;;;;;4922081;29;20048;-81
2022/09/02 00:28:25;;;;;;;0.10;0.10;;;16.60;99.90;;;;;;4896085;29;20032;-80
2022/09/02 00:31:26;;;;;;;0.10;0.10;;;14.50;99.90;;;;;;4924804;29;20032;-80
2022/09/02 00:33:58;;;;;;;0.10;0.10;;;14.50;99.90;;;;;;4917875;29;20032;-79
2022/09/02 00:36:35;;;;;;;0.10;0.10;;;14.40;99.90;;;;;;4913083;29;20051;-78
2022/09/02 00:39:08;;;;;;;0.10;0.10;;;11.30;99.90;;;;;;4928495;29;20283;-78
2022/09/02 00:41:43;;;;;;;0.10;0.10;;;13.40;99.90;;;;;;4904911;29;20024;-79
2022/09/02 00:44:17;;;;;;;0.10;0.10;;;14.40;99.90;;;;;;4924630;29;20021;-83
2022/09/02 00:46:46;;;;;;;0.10;0.10;;;14.40;99.90;;;;;;4925889;29;20147;-80
2022/09/02 00:49:26;;;;;;;0.10;0.10;;;14.30;99.90;;;;;;4882158;29;20052;-80
2022/09/02 00:52:07;;;;;;;0.10;0.10;;;14.20;99.90;;;;;;4900338;29;20039;-80
2022/09/02 00:54:42;;;;;;;0.10;0.10;;;14.50;99.90;;;;;;4923301;29;20047;-80
2022/09/02 00:57:22;;;;;;;0.10;0.10;;;14.20;99.90;;;;;;4902997;29;20243;-79
2022/09/02 01:00:12;;;;;;;0.10;0.10;;;13.20;99.90;;;;;;4927277;23;20064;-81
2022/09/02 01:02:58;;;;;;;0.10;0.10;;;14.20;99.90;;;;;;4927877;29;20077;-82
2022/09/02 01:05:29;;;;;;;0.10;0.10;;;16.60;99.90;;;;;;4920099;29;20016;-80
2022/09/02 01:08:09;;;;;;;0.10;0.10;;;14.20;99.90;;;;;;4918029;29;20332;-79
2022/09/02 01:10:45;;;;;;;0.10;0.10;;;14.20;99.90;;;;;;4918219;29;20043;-79
2022/09/02 01:13:19;;;;;;;0.00;0.00;;;10.40;99.90;;;;;;4901715;29;20100;-78
2022/09/02 01:15:49;;;;;;;0.00;0.00;;;14.40;99.90;;;;;;4883846;29;20127;-79
2022/09/02 01:18:23;;;;;;;0.10;0.10;;;14.40;99.90;;;;;;4918863;29;20301;-78
2022/09/02 01:21:07;;;;;;;0.10;0.10;;;14.40;99.90;;;;;;4889345;29;20338;-80
2022/09/02 01:23:37;;;;;;;0.10;0.10;;;14.50;99.90;;;;;;4918663;29;20056;-78
2022/09/02 01:26:22;;;;;;;0.10;0.10;;;14.50;99.90;;;;;;4927492;29;20095;-78
2022/09/02 01:28:48;;;;;;;0.10;0.10;;;14.40;99.90;;;;;;4924380;29;20039;-78
2022/09/02 01:31:26;;;;;;;0.10;0.10;;;13.40;99.90;;;;;;4923688;29;20036;-79
2022/09/02 01:34:15;;;;;;;0.10;0.10;;;14.50;99.90;;;;;;4923712;29;20091;-79
2022/09/02 01:36:52;;;;;;;0.10;0.10;;;14.50;99.90;;;;;;4919966;29;20016;-79
2022/09/02 01:39:23;;;;;;;0.10;0.10;;;14.40;99.90;;;;;;4947770;23;20052;-80
2022/09/02 01:41:52;;;;;;;0.10;0.10;;;12.20;99.90;;;;;;4926701;29;20099;-80
2022/09/02 01:44:54;;;;;;;0.10;0.10;;;15.20;99.90;;;;;;4906394;29;20339;-80
2022/09/02 01:47:26;;;;;;;0.10;0.10;;;14.40;99.90;;;;;;4918460;29;20040;-80
2022/09/02 01:50:03;;;;;;;0.10;0.10;;;14.40;99.90;;;;;;4921967;29;20039;-78
2022/09/02 01:52:29;;;;;;;0.10;0.10;;;14.50;99.90;;;;;;4928845;29;20040;-79
2022/09/02 01:54:58;;;;;;;0.10;0.10;;;14.40;99.90;;;;;;4904998;29;20066;-79
2022/09/02 01:57:31;;;;;;;0.10;0.10;;;;;;;;;;4903316;29;20020;-82
2022/09/02 02:00:21;;;;;;;0.10;0.10;;;14.30;99.90;;;;;;4919591;29;20032;-78
2022/09/02 02:03:02;;;;;;;0.10;0.10;;;14.30;99.90;;;;;;4920301;29;20032;-79
2022/09/02 02:05:29;;;;;;;0.10;0.10;;;;;;;;;;4919863;29;20766;-81
2022/09/02 02:08:06;;;;;;;0.10;0.10;;;14.30;99.90;;;;;;4914412;29;20309;-79
2022/09/02 02:10:33;;;;;;;0.77;0.77;;;15.40;99.90;;;;;;4927576;29;20059;-81
2022/09/02 02:13:02;;;;;;;0.20;0.20;;;14.50;99.90;;;;;;4918901;29;20099;-79
2022/09/02 02:15:41;;;;;;;0.10;0.10;;;14.00;99.90;;;;;;4898816;29;20139;-79
2022/09/02 02:18:16;;;;;;;0.10;0.10;;;12.40;99.90;;;;;;4904721;29;20028;-80
2022/09/02 02:20:51;;;;;;;0.10;0.10;;;15.40;99.90;;;;;;4919217;29;20398;-79
2022/09/02 02:23:18;;;;;;;0.10;0.10;;;14.00;99.90;;;;;;4914828;29;20055;-79
2022/09/02 02:25:48;;;;;;;0.10;0.10;;;14.40;99.90;;;;;;4901149;29;20155;-79
2022/09/02 02:28:27;;;;;;;0.10;0.10;;;14.40;99.90;;;;;;4920638;29;20028;-79
2022/09/02 02:30:58;;;;;;;0.10;0.10;;;14.90;99.90;;;;;;4926013;29;20039;-79
2022/09/02 02:33:24;;;;;;;0.10;0.10;;;14.40;99.90;;;;;;4906425;29;20072;-81
2022/09/02 02:36:03;;;;;;;0.10;0.10;;;14.40;99.90;;;;;;4930354;23;20025;-78
2022/09/02 02:38:36;;;;;;;0.10;0.10;;;13.60;99.90;;;;;;4899643;29;20502;-81
2022/09/02 02:41:18;;;;;;;0.10;0.10;;;14.50;99.90;;;;;;4897103;29;20370;-80
2022/09/02 02:44:03;;;;;;;0.13;0.13;;;14.40;99.90;;;;;;4924723;29;20032;-79
2022/09/02 02:46:40;;;;;;;0.10;0.10;;;12.60;99.90;;;;;;4922724;23;20055;-81
2022/09/02 02:49:20;;;;;;;0.10;0.10;;;12.40;99.90;;;;;;4903423;29;20120;-81
2022/09/02 02:51:58;;;;;;;0.10;0.10;;;14.20;99.90;;;;;;4909260;29;20184;-83
2022/09/02 02:54:25;;;;;;;0.10;0.10;;;14.20;99.90;;;;;;4927881;29;20281;-82
2022/09/02 02:56:54;;;;;;;0.10;0.10;;;13.60;99.90;;;;;;4906837;29;20048;-81
2022/09/02 02:59:25;;;;;;;0.10;0.10;;;14.10;99.90;;;;;;4898888;29;20040;-81
2022/09/02 03:02:16;;;;;;;0.22;0.22;;;15.50;99.90;;;;;;4916867;29;20043;-78
2022/09/02 03:04:53;;;;;;;0.10;0.10;;;12.50;99.90;;;;;;4905890;29;20606;-80
2022/09/02 03:07:22;;;;;;;0.10;0.10;;;14.20;99.90;;;;;;4879401;29;20052;-81
2022/09/02 03:10:08;;;;;;;0.10;0.10;;;14.10;99.90;;;;;;4897912;29;20059;-78
2022/09/02 03:12:39;;;;;;;0.10;0.10;;;14.40;99.90;;;;;;4879473;29;20040;-83
2022/09/02 03:15:35;;;;;;;0.10;0.10;;;14.20;99.90;;;;;;4881846;29;20020;-83
2022/09/02 03:18:07;;;;;;;0.10;0.10;;;;;;;;;;4896787;29;20534;-81
2022/09/02 03:20:47;;;;;;;0.10;0.10;;;14.20;99.90;;;;;;4901364;29;20029;-82
2022/09/02 03:23:19;;;;;;;0.10;0.10;;;14.30;99.90;;;;;;4878866;29;20024;-81
2022/09/02 03:25:48;;;;;;;0.10;0.10;;;13.20;99.90;;;;;;4886489;29;20025;-80
2022/09/02 03:28:24;;;;;;;0.10;0.10;;;14.40;99.90;;;;;;4904884;29;20129;-82
2022/09/02 03:30:52;;;;;;;0.10;0.10;;;14.30;99.90;;;;;;4880970;29;20037;-81
2022/09/02 03:33:31;;;;;;;0.10;0.10;;;14.40;99.90;;;;;;4879695;29;20037;-83
2022/09/02 03:36:00;;;;;;;0.10;0.10;;;14.40;99.90;;;;;;4900636;29;20247;-80
2022/09/02 03:38:41;;;;;;;0.10;0.10;;;14.40;99.90;;;;;;4904646;29;20243;-80
2022/09/02 03:41:06;;;;;;;0.10;0.10;;;14.40;99.90;;;;;;4901490;29;20055;-77
2022/09/02 03:43:32;;;;;;;0.10;0.10;;;14.40;99.90;;;;;;4876343;29;20028;-83
2022/09/02 03:46:01;;;;;;;0.10;0.10;;;14.30;99.90;;;;;;4902012;29;20032;-78
2022/09/02 03:48:28;;;;;;;1.30;1.23;;;14.20;99.90;;;;;;4890394;29;20111;-81
2022/09/02 03:50:54;;;;;;;0.10;0.10;;;14.20;99.90;;;;;;4890269;29;20137;-79
2022/09/02 03:53:22;;;;;;;0.10;0.10;;;14.20;99.90;;;;;;4871474;29;20055;-81
2022/09/02 03:55:54;;;;;;;0.10;0.10;;;14.70;99.90;;;;;;4884247;29;20386;-79
2022/09/02 03:58:25;;;;;;;0.10;0.10;;;14.30;99.90;;;;;;4880746;29;20038;-79
2022/09/02 04:00:54;;;;;;;0.10;0.10;;;14.30;99.90;;;;;;4882690;29;20726;-78
2022/09/02 04:03:36;;;;;;;0.10;0.10;;;14.20;99.90;;;;;;4870840;29;20040;-80
2022/09/02 04:06:02;;;;;;;0.10;0.10;;;14.20;99.90;;;;;;4908175;29;20128;-80
2022/09/02 04:08:35;;;;;;;0.10;0.10;;;14.20;99.90;;;;;;4906592;29;20583;-81
2022/09/02 04:11:13;;;;;;;0.10;0.10;;;14.20;99.90;;;;;;4889110;29;20033;-82
2022/09/02 04:13:40;;;;;;;0.10;0.10;;;14.10;99.90;;;;;;4885802;29;20353;-79
2022/09/02 04:16:26;;;;;;;0.10;0.10;;;14.10;99.90;;;;;;4907713;29;20016;-82
2022/09/02 04:18:58;;;;;;;0.10;0.10;;;14.10;99.90;;;;;;4910495;29;20024;-81
2022/09/02 04:21:44;;;;;;;0.10;0.10;;;14.00;99.90;;;;;;4909100;29;20032;-81
2022/09/02 04:24:11;;;;;;;0.10;0.10;;;13.90;99.90;;;;;;4874707;29;20104;-82
2022/09/02 04:26:39;;;;;;;0.10;0.10;;;;;;;;;;4906024;29;20087;-83
2022/09/02 04:29:06;;;;;;;0.10;0.10;;;13.80;99.90;;;;;;4900392;29;20028;-81
2022/09/02 04:31:58;;;;;;;0.10;0.10;;;13.80;99.90;;;;;;4887170;29;20025;-88
2022/09/02 04:34:42;;;;;;;0.10;0.10;;;13.80;99.90;;;;;;4857818;29;20045;-79
2022/09/02 04:37:08;;;;;;;0.10;0.10;;;13.70;99.90;;;;;;4857521;29;20185;-79
2022/09/02 04:39:36;;;;;;;0.10;0.10;;;13.70;99.90;;;;;;4854751;29;20344;-79
2022/09/02 04:42:02;;;;;;;0.10;0.10;;;13.70;99.90;;;;;;4863175;29;20104;-81
2022/09/02 04:44:28;;;;;;;0.10;0.10;;;13.70;99.90;;;;;;4861698;29;20046;-82
2022/09/02 04:46:53;;;;;;;0.10;0.10;;;13.80;99.90;;;;;;4864740;29;20065;-83
2022/09/02 04:49:24;;;;;;;0.10;0.10;;;13.80;99.90;;;;;;4866389;29;20070;-83
2022/09/02 04:51:53;;;;;;;0.10;0.10;;;13.10;99.90;;;;;;4850685;29;20113;-79
2022/09/02 04:54:41;;;;;;;0.10;0.10;;;13.70;99.90;;;;;;4852594;29;20038;-81
2022/09/02 04:57:31;;;;;;;0.10;0.10;;;13.70;99.90;;;;;;4813853;29;20118;-78
2022/09/02 05:00:23;;;;;;;0.10;0.10;;;13.70;99.90;;;;;;4836553;29;20136;-78
2022/09/02 05:02:56;;;;;;;0.10;0.10;;;14.40;99.90;;;;;;4849476;29;20059;-79
2022/09/02 05:05:25;;;;;;;0.10;0.10;;;13.60;99.90;;;;;;4858225;29;20370;-79
2022/09/02 05:07:55;;;;;;;0.10;0.10;;;13.60;99.90;;;;;;4863742;29;20021;-77
2022/09/02 05:10:21;;;;;;;0.10;0.10;;;14.30;99.90;;;;;;4885178;29;20069;-86
2022/09/02 05:12:54;;;;;;;0.10;0.10;;;13.60;99.90;;;;;;4868067;29;20074;-79
2022/09/02 05:15:22;;;;;;;0.10;0.10;;;14.10;99.90;;;;;;4881855;29;20041;-78
2022/09/02 05:17:54;;;;;;;0.10;0.10;;;13.60;99.90;;;;;;4884233;29;20069;-82
2022/09/02 05:20:24;;;;;;;0.10;0.10;;;13.60;99.90;;;;;;4869221;29;20105;-82
2022/09/02 05:22:54;;;;;;;0.10;0.10;;;13.60;99.90;;;;;;4878700;29;20037;-79
2022/09/02 05:25:20;;;;;;;0.10;0.10;;;13.60;99.90;;;;;;4882612;29;20017;-79
2022/09/02 05:27:47;;;;;;;0.35;0.35;;;13.60;99.90;;;;;;4884729;29;20041;-79
2022/09/02 05:30:14;;;;;;;0.10;0.10;;;13.70;99.90;;;;;;4904201;29;20008;-79
2022/09/02 05:32:41;;;;;;;0.10;0.10;;;12.30;99.90;;;;;;4884283;29;20043;-80
2022/09/02 05:35:10;;;;;;;0.10;0.10;;;13.70;99.90;;;;;;4900009;29;20035;-81
2022/09/02 05:37:41;;;;;;;0.10;0.10;;;13.70;99.90;;;;;;4890095;29;20028;-79
2022/09/02 05:40:08;;;;;;;0.10;0.10;;;13.70;99.90;;;;;;4889672;29;20041;-78
2022/09/02 05:42:34;;;;;;;0.10;0.10;;;13.80;99.90;;;;;;4906617;29;20013;-80
2022/09/02 05:45:00;;;;;;;0.03;0.03;;;13.80;99.90;;;;;;4903606;29;20033;-84
2022/09/02 05:47:30;;;;;;;0.10;0.10;;;14.20;99.90;;;;;;4897634;29;20064;-84
2022/09/02 05:49:56;;;;;;;0.10;0.10;;;12.60;99.90;;;;;;4901517;29;20024;-78
2022/09/02 05:52:22;;;;;;;0.10;0.10;;;13.80;99.90;;;;;;4880646;29;20036;-86
2022/09/02 05:54:48;;;;;;;0.10;0.10;;;13.80;99.90;;;;;;4900059;29;20369;-81
2022/09/02 05:57:16;;;;;;;0.10;0.10;;;13.70;99.90;;;;;;4886529;29;20037;-82
2022/09/02 05:59:55;;;;;;;0.10;0.10;;;13.80;99.90;;;;;;4902521;29;20036;-79
2022/09/02 06:02:26;;;;;;;0.10;0.10;;;13.80;99.90;;;;;;4902137;29;20031;-78
2022/09/02 06:04:54;;;;;;;0.10;0.10;;;13.80;99.90;;;;;;4854159;29;20052;-79
2022/09/02 06:07:22;;;;;;;0.10;0.10;;;13.90;99.90;;;;;;4904472;29;20392;-79
2022/09/02 06:09:52;;;;;;;0.10;0.10;;;12.50;99.90;;;;;;4905536;29;20025;-78
2022/09/02 06:12:19;;;;;;;0.10;0.10;;;14.00;99.90;;;;;;4905712;29;20036;-78
2022/09/02 06:15:06;;;;;;;0.10;0.10;;;13.90;99.90;;;;;;4887172;29;20028;-81
2022/09/02 06:17:37;;;;;;;0.10;0.10;;;14.00;99.90;;;;;;4884379;29;20036;-78
2022/09/02 06:20:14;;;;;;;0.10;0.10;;;13.90;99.90;;;;;;4891796;29;20020;-76
2022/09/02 06:22:45;;;;;;;0.10;0.10;;;13.90;99.90;;;;;;4905898;29;20037;-80
2022/09/02 06:25:23;;;;;;;0.10;0.10;;;14.00;99.90;;;;;;4907749;29;20029;-77
2022/09/02 06:27:51;;;;;;;0.10;0.10;;;14.00;99.90;;;;;;4888740;29;20033;-77
2022/09/02 06:30:17;;;;;;;0.10;0.10;;;14.10;99.90;;;;;;4891344;29;20043;-81
2022/09/02 06:32:46;;;;;;;0.10;0.10;;;;;;;;;;4906070;29;20024;-78
2022/09/02 06:35:16;;;;;;;0.10;0.10;;;14.10;99.90;;;;;;4903114;29;20029;-81
2022/09/02 06:37:43;;;;;;;0.10;0.10;;;14.10;99.90;;;;;;4904904;29;20035;-83
2022/09/02 06:40:18;;;;;;;0.10;0.10;;;14.10;99.90;;;;;;4886241;29;20036;-78
2022/09/02 06:42:54;;;;;;;0.10;0.10;;;14.10;99.90;;;;;;4891758;29;20140;-89
2022/09/02 06:45:57;;;;;;;0.10;0.10;;;14.20;99.90;;;;;;4893348;29;20189;-87
2022/09/02 06:48:44;;;;;;;0.10;0.10;;;16.30;99.90;;;;;;4829056;29;20057;-86
2022/09/02 06:51:20;;;;;;;0.10;0.10;;;12.10;99.90;;;;;;4848844;29;20070;-81
2022/09/02 06:54:09;;;;;;;0.10;0.10;;;14.20;99.90;;;;;;4842516;29;20046;-79
2022/09/02 06:56:38;;;;;;;0.10;0.10;;;13.30;99.90;;;;;;4824668;29;20026;-83
2022/09/02 06:59:07;;;;;;;0.10;0.10;;;14.10;99.90;;;;;;4835232;29;20177;-82
2022/09/02 07:01:34;;;;;;;0.10;0.10;;;11.30;99.90;;;;;;4835030;29;20034;-88
2022/09/02 07:06:53;;;;;;;0.10;0.10;;;14.00;99.90;;;;;;4825254;29;20280;-82
2022/09/02 07:09:29;;;;;;;0.10;0.10;;;13.90;99.90;;;;;;4817039;29;20414;-77
2022/09/02 07:12:00;;;;;;;0.10;0.10;;;14.00;99.90;;;;;;4808965;29;20046;-79
2022/09/02 07:14:27;;;;;;;0.10;0.10;;;16.00;99.90;;;;;;4845164;29;20019;-82
2022/09/02 07:16:56;;;;;;;0.10;0.10;;;13.90;99.90;;;;;;4832401;29;20053;-84
2022/09/02 07:19:23;;;;;;;0.10;0.10;;;13.80;99.90;;;;;;4848882;29;20034;-83
2022/09/02 07:21:51;;;;;;;0.20;0.20;;;13.80;99.90;;;;;;4854676;29;20038;-79
2022/09/02 07:24:21;;;;;;;0.10;0.10;;;13.80;99.90;;;;;;4840203;29;20025;-79
2022/09/02 07:26:49;;;;;;;0.10;0.10;;;;;;;;;;4909034;29;20041;-79
2022/09/02 07:29:16;;;;;;;0.10;0.10;;;13.90;99.90;;;;;;4904327;29;20024;-86
2022/09/02 07:31:51;;;;;;;0.10;0.10;;;14.00;99.90;;;;;;4892173;29;20048;-79
2022/09/02 07:34:21;;;;;;;0.10;0.10;;;;;;;;;;4870062;29;20075;-76
2022/09/02 07:36:47;;;;;;;0.10;0.10;;;14.00;99.90;;;;;;4906796;29;20053;-80
2022/09/02 07:39:29;;;;;;;0.10;0.10;;;12.00;99.90;;;;;;4907213;29;20029;-80
2022/09/02 07:42:21;;;;;;;0.10;0.10;;;13.90;99.90;;;;;;4889343;29;20055;-78
2022/09/02 07:44:47;;;;;;;0.10;0.10;;;14.00;99.90;;;;;;4891929;29;20033;-84
2022/09/02 07:47:22;;;;;;;0.10;0.10;;;14.00;99.90;;;;;;4888080;29;20108;-84
2022/09/02 07:49:49;;;;;;;0.10;0.10;;;14.00;99.90;;;;;;4887009;29;20044;-80
2022/09/02 07:52:19;;;;;;;0.08;0.08;;;14.00;99.90;;;;;;4867692;29;20120;-78
2022/09/02 07:54:48;;;;;;;0.10;0.10;;;14.10;99.90;;;;;;4866192;29;20248;-76
2022/09/02 07:57:17;;;;;;;0.10;0.10;;;;;;;;;;4872946;29;20180;-79
2022/09/02 07:59:46;;;;;;;0.10;0.10;;;14.20;99.90;;;;;;4881137;29;20029;-83
2022/09/02 08:02:17;;;;;;;0.10;0.10;;;14.20;99.90;;;;;;4863827;29;20098;-78
2022/09/02 08:04:44;;;;;;;0.10;0.10;;;14.20;99.90;;;;;;4884416;29;20037;-77
2022/09/02 08:07:23;;;;;;;0.10;0.10;;;14.20;99.90;;;;;;4867379;29;20024;-78
2022/09/02 08:09:59;;;;;;;0.17;0.17;;;14.50;99.90;;;;;;4879283;29;20123;-79
2022/09/02 08:12:36;;;;;;;1.65;1.55;;;11.40;99.90;;;;;;4871461;29;20053;-92
2022/09/02 08:15:07;;;;;;;0.10;0.10;;;13.20;99.90;;;;;;4869177;29;20036;-83
2022/09/02 08:17:39;;;;;;;0.10;0.10;;;14.00;99.90;;;;;;4884326;29;20028;-79
2022/09/02 08:20:15;;;;;;;0.10;0.10;;;14.50;99.90;;;;;;4905186;29;20092;-81
2022/09/02 08:22:50;;;;;;;0.10;0.10;;;14.80;99.90;;;;;;4897423;29;20745;-80
2022/09/02 08:25:18;;;;;;;0.10;0.10;;;14.50;99.90;;;;;;4877439;29;20020;-88
2022/09/02 08:27:45;;;;;;;0.10;0.10;;;14.60;99.90;;;;;;4894558;29;20040;-80
2022/09/02 08:30:14;;;;;;;0.10;0.10;;;14.70;99.90;;;;;;4891848;29;20057;-78
2022/09/02 08:32:43;;;;;;;0.10;0.10;;;14.70;99.90;;;;;;4894180;29;20065;-76
2022/09/02 08:35:22;;;;;;;0.10;0.10;;;14.70;99.90;;;;;;4896502;29;20380;-80
2022/09/02 08:37:56;;;;;;;0.10;0.10;;;14.70;99.90;;;;;;4897495;29;20049;-79
2022/09/02 08:40:33;;;;;;;0.10;0.10;;;14.80;99.90;;;;;;4887205;29;20021;-79
2022/09/02 08:43:01;;;;;;;0.10;0.10;;;14.80;99.90;;;;;;4904232;29;20016;-78
2022/09/02 08:45:48;;;;;;;0.10;0.10;;;15.70;99.90;;;;;;4878455;29;20029;-79
2022/09/02 08:48:51;;;;;;;0.10;0.10;;;11.70;99.90;;;;;;4894534;29;20072;-78
2022/09/02 08:52:10;;;;;;;0.10;0.10;;;15.00;99.90;;;;;;4902408;29;20055;-80
2022/09/02 08:54:41;;;;;;;0.10;0.10;;;15.10;99.90;;;;;;4816774;29;20114;-76
2022/09/02 08:57:09;;;;;;;0.10;0.10;;;15.10;99.90;;;;;;4815288;29;20165;-74
2022/09/02 08:59:38;;;;;;;0.10;0.10;;;14.90;99.90;;;;;;4817861;29;20038;-82
2022/09/02 09:02:04;;;;;;;0.10;0.10;;;;;;;;;;4804594;29;20075;-79
2022/09/02 09:05:13;;;;;;;0.10;0.10;;;15.20;99.90;;;;;;4827042;29;20735;-80
2022/09/02 09:07:58;;;;;;;0.10;0.10;;;15.20;99.90;;;;;;4748775;30;20036;-78
2022/09/02 09:10:28;;;;;;;0.10;0.10;;;15.30;99.90;;;;;;4768650;30;20053;-78
2022/09/02 09:13:23;;;;;;;0.10;0.10;;;15.30;99.90;;;;;;4768254;30;20039;-77
2022/09/02 09:16:33;;;;;;;0.10;0.10;;;15.30;99.90;;;;;;4751204;30;20135;-78
2022/09/02 09:19:08;;;;;;;0.10;0.10;;;15.40;99.90;;;;;;4752547;30;20056;-77
2022/09/02 09:21:56;;;;;;;0.10;0.10;;;19.00;99.90;;;;;;4734037;30;20067;-77
2022/09/02 09:24:50;;;;;;;0.10;0.10;;;15.60;99.90;;;;;;4750078;30;20063;-79
2022/09/02 09:27:22;;;;;;;0.20;0.20;;;16.20;99.90;;;;;;4749528;30;20130;-78
2022/09/02 09:29:49;;;;;;;0.10;0.10;;;16.30;99.90;;;;;;4731097;30;20028;-77
2022/09/02 09:32:26;;;;;;;0.10;0.10;;;15.60;99.90;;;;;;4800528;29;20031;-77
2022/09/02 09:34:55;;;;;;;0.10;0.10;;;15.60;99.90;;;;;;4802531;29;20048;-77
2022/09/02 09:37:46;;;;;;;0.10;0.10;;;15.60;99.90;;;;;;4802328;29;20669;-77
2022/09/02 09:40:27;;;;;;;0.10;0.10;;;15.80;99.90;;;;;;4799889;29;20035;-77
2022/09/02 09:43:12;;;;;;;0.10;0.10;;;15.80;99.90;;;;;;4800725;29;20067;-77
2022/09/02 09:45:44;;;;;;;0.10;0.10;;;15.80;99.90;;;;;;4801887;29;20232;-77
2022/09/02 09:48:21;;;;;;;0.10;0.10;;;15.80;99.90;;;;;;4797039;29;20134;-78
2022/09/02 09:51:43;;;;;;;0.10;0.10;;;18.10;99.90;;;;;;4799434;29;20046;-78
2022/09/02 09:54:17;;;;;;;0.10;0.10;;;15.80;99.90;;;;;;4794558;29;20062;-77
2022/09/02 09:56:46;;;;;;;0.20;0.20;;;15.70;99.90;;;;;;4798871;29;20153;-77
2022/09/02 10:00:02;;;;;;;0.10;0.10;;;13.60;99.90;;;;;;4746158;30;20051;-78
2022/09/02 10:02:31;;;;;;;0.10;0.10;;;16.00;99.90;;;;;;4728806;30;20136;-77
2022/09/02 10:05:17;;;;;;;0.10;0.10;;;16.20;99.90;;;;;;4744434;30;20032;-77
2022/09/02 10:07:57;;;;;;;0.10;0.10;;;15.10;99.90;;;;;;4730032;30;20597;-77
2022/09/02 10:10:38;;;;;;;0.43;0.43;;;16.20;99.90;;;;;;4746279;30;20044;-77
2022/09/02 10:13:22;;;;;;;0.10;0.10;;;15.90;99.90;;;;;;4733549;30;20043;-78
2022/09/02 10:16:19;;;;;;;0.10;0.10;;;16.20;99.90;;;;;;4749618;30;20021;-77
2022/09/02 10:18:52;;;;;;;0.10;0.10;;;16.20;99.90;;;;;;4751102;30;20043;-78
2022/09/02 10:21:43;;;;;;;0.10;0.10;;;16.10;99.90;;;;;;4769676;30;20091;-77
2022/09/02 10:24:32;;;;;;;0.10;0.10;;;18.40;99.90;;;;;;4767501;30;20031;-76
2022/09/02 10:27:07;;;;;;;0.10;0.10;;;16.30;99.90;;;;;;4752043;29;20028;-78
2022/09/02 10:29:38;;;;;;;0.10;0.10;;;16.20;99.90;;;;;;4773642;29;20020;-77
2022/09/02 10:32:33;;;;;;;0.10;0.10;;;16.30;99.90;;;;;;4835337;29;20057;-82
2022/09/02 10:35:09;;;;;;;0.10;0.10;;;16.30;99.90;;;;;;4819811;29;20030;-78
2022/09/02 10:38:06;;;;;;;0.20;0.20;;;16.40;99.90;;;;;;4834977;29;20103;-77
2022/09/02 10:40:56;;;;;;;0.10;0.10;;;16.40;99.90;;;;;;4843861;29;20049;-77
2022/09/02 10:43:45;;;;;;;0.00;0.00;;;16.40;99.90;;;;;;4856374;29;20070;-76
2022/09/02 10:46:17;;;;;;;0.20;0.20;;;16.40;99.90;;;;;;4843594;29;20073;-77
2022/09/02 10:49:10;;;;;;;0.40;0.40;;;16.30;99.90;;;;;;4840552;29;20032;-77
2022/09/02 10:52:00;;;;;;;0.50;0.50;;;14.20;99.90;;;;;;4857099;29;20033;-77
2022/09/02 10:55:06;;;;;;;0.10;0.10;;;14.50;99.90;;;;;;4858254;29;20030;-76
2022/09/02 10:57:47;;;;;;;0.10;0.10;;;16.20;99.90;;;;;;4843731;29;20028;-76
2022/09/02 11:00:28;;;;;;;0.10;0.10;;;16.20;99.90;;;;;;4835353;29;20045;-77
2022/09/02 11:03:35;;;;;;;0.10;0.10;;;16.20;99.90;;;;;;4826006;29;20027;-77
2022/09/02 11:06:23;;;;;;;0.10;0.10;;;16.20;99.90;;;;;;4805985;29;20039;-79
2022/09/02 11:09:05;;;;;;;0.20;0.20;;;15.40;99.90;;;;;;4791117;29;20064;-77
2022/09/02 11:11:45;;;;;;;0.10;0.10;;;16.10;99.90;;;;;;4811635;29;20034;-77
2022/09/02 11:14:35;;;;;;;0.17;0.17;;;16.00;99.90;;;;;;4824303;29;20079;-76
2022/09/02 11:17:10;;;;;;;0.10;0.10;;;15.90;99.90;;;;;;4809029;29;20114;-76
2022/09/02 11:20:26;;;;;;;0.15;0.15;;;15.80;99.90;;;;;;4825491;29;20041;-77
2022/09/02 11:23:15;;;;;;;0.10;0.10;;;15.90;99.90;;;;;;4809037;29;20035;-77
2022/09/02 11:26:31;;;;;;;0.10;0.10;;;15.80;99.90;;;;;;4807311;29;20513;-79
2022/09/02 11:29:18;;;;;;;0.30;0.30;;;15.80;99.90;;;;;;4775559;30;20038;-78
2022/09/02 11:32:03;;;;;;;0.10;0.10;;;15.70;99.90;;;;;;4773820;30;20142;-79
2022/09/02 11:34:45;;;;;;;0.10;0.10;;;15.50;99.90;;;;;;4767945;30;20127;-79
2022/09/02 11:37:33;;;;;;;0.10;0.10;;;15.40;99.90;;;;;;4767604;30;20032;-81
2022/09/02 11:40:08;;;;;;;0.10;0.10;;;17.10;99.90;;;;;;4768018;30;20040;-77
2022/09/02 11:43:03;;;;;;;0.10;0.10;;;15.40;99.90;;;;;;4761106;30;20195;-78
2022/09/02 11:45:38;;;;;;;0.10;0.10;;;15.50;99.90;;;;;;4733081;30;20317;-79
2022/09/02 11:48:28;;;;;;;0.10;0.10;;;15.50;99.90;;;;;;4747943;30;20032;-77
2022/09/02 11:51:22;;;;;;;0.10;0.10;;;15.50;99.90;;;;;;4748456;30;20768;-79
2022/09/02 11:54:11;;;;;;;0.10;0.10;;;15.50;99.90;;;;;;4750976;30;20133;-77
2022/09/02 11:56:55;;;;;;;0.10;0.10;;;15.50;99.90;;;;;;4750916;30;20088;-76
2022/09/02 11:59:56;;;;;;;0.10;0.10;;;15.60;99.90;;;;;;4748662;30;20581;-77
2022/09/02 12:02:36;;;;;;;0.10;0.10;;;15.60;99.90;;;;;;4756217;30;20050;-77
2022/09/02 12:05:30;;;;;;;0.10;0.10;;;15.50;99.90;;;;;;4793539;29;20037;-76
2022/09/02 12:08:04;;;;;;;;;;;14.70;99.90;;;;;;4879460;29;20055;-77
2022/09/02 12:10:42;;;;;;;0.10;0.10;;;15.30;99.90;;;;;;4878077;29;19983;-80
2022/09/02 12:13:10;;;;;;;0.10;0.10;;;15.70;99.90;;;;;;4858951;29;20033;-77
2022/09/02 12:15:47;;;;;;;1.88;1.80;;;15.80;99.90;;;;;;4879432;29;20042;-79
2022/09/02 12:18:41;;;;;;;0.10;0.10;;;15.70;99.90;;;;;;4875063;29;20104;-77
2022/09/02 12:21:13;;;;;;;0.10;0.10;;;15.80;99.90;;;;;;4871132;29;20040;-79
2022/09/02 12:23:55;;;;;;;0.10;0.10;;;15.80;99.90;;;;;;4871636;29;20021;-78
2022/09/02 12:26:48;;;;;;;0.10;0.10;;;15.90;99.90;;;;;;4876172;29;20026;-75
2022/09/02 12:29:38;;;;;;;0.10;0.10;;;15.90;99.90;;;;;;4874487;29;20032;-76
2022/09/02 12:32:04;;;;;;;0.10;0.10;;;16.00;99.90;;;;;;4766072;30;20043;-77
2022/09/02 12:34:52;;;;;;;0.10;0.10;;;16.10;99.90;;;;;;4781416;30;20031;-77
2022/09/02 12:37:52;;;;;;;0.10;0.10;;;16.30;99.90;;;;;;4781131;29;20039;-76
2022/09/02 12:40:27;;;;;;;0.10;0.10;;;16.50;99.90;;;;;;4782260;30;20069;-76
2022/09/02 12:42:58;;;;;;;0.10;0.10;;;16.50;99.90;;;;;;4788090;29;20042;-77
2022/09/02 12:45:26;;;;;;;0.10;0.10;;;16.50;99.90;;;;;;4798593;29;20064;-76
2022/09/02 12:48:11;;;;;;;0.10;0.10;;;16.60;99.90;;;;;;4782935;29;20605;-78
2022/09/02 12:50:54;;;;;;;0.10;0.10;;;16.70;99.90;;;;;;4797536;29;20062;-77
2022/09/02 12:53:23;;;;;;;0.10;0.10;;;16.70;99.90;;;;;;4798555;29;20039;-77
2022/09/02 12:56:03;;;;;;;0.30;0.30;;;16.80;99.90;;;;;;4814347;29;20035;-77
2022/09/02 12:58:46;;;;;;;0.10;0.10;;;16.80;99.90;;;;;;4802020;29;20047;-76
2022/09/02 13:01:12;;;;;;;0.10;0.10;;;16.40;99.90;;;;;;4800967;29;20047;-77
2022/09/02 13:04:02;;;;;;;0.10;0.10;;;16.90;99.90;;;;;;4815020;29;20616;-76
2022/09/02 13:07:15;;;;;;;0.10;0.10;;;17.00;99.90;;;;;;4798853;29;20534;-76
2022/09/02 13:10:37;;;;;;;0.10;0.10;;;16.20;99.90;;;;;;4824983;29;20106;-78
2022/09/02 13:13:30;;;;;;;0.15;0.15;;;17.30;99.90;;;;;;4726973;30;20055;-83
2022/09/02 13:16:09;;;;;;;1.40;1.30;;;17.40;99.90;;;;;;4732199;30;20029;-76
2022/09/02 13:19:15;;;;;;;0.00;0.00;;;19.80;99.90;;;;;;4719672;30;20115;-78
2022/09/02 13:22:18;;;;;;;0.10;0.10;;;17.60;99.90;;;;;;4732496;30;20095;-76
2022/09/02 13:25:14;;;;;;;0.20;0.20;;;21.30;99.90;;;;;;4730312;30;20037;-76
2022/09/02 13:27:54;;;;;;;0.10;0.10;;;17.90;99.90;;;;;;4693278;30;20033;-83
2022/09/02 13:30:50;;;;;;;0.13;0.13;;;17.90;99.90;;;;;;4696204;30;20049;-75
2022/09/02 13:33:18;;;;;;;0.30;0.30;;;18.00;99.90;;;;;;4691671;30;20046;-78
2022/09/02 13:35:53;;;;;;;0.10;0.10;;;14.80;99.90;;;;;;4695821;30;20042;-76
2022/09/02 13:38:28;;;;;;;0.10;0.10;;;17.90;99.90;;;;;;4692329;30;20719;-77
2022/09/02 13:40:54;;;;;;;0.00;0.00;;;16.00;99.90;;;;;;4691588;30;20041;-82
2022/09/02 13:43:24;;;;;;;0.10;0.10;;;17.90;99.90;;;;;;4694230;30;20068;-83
2022/09/02 13:45:51;;;;;;;0.20;0.20;;;17.90;99.90;;;;;;4693308;30;20045;-76
2022/09/02 13:48:23;;;;;;;0.10;0.10;;;17.80;99.90;;;;;;4708084;30;20053;-73